createdAt,value
2022-10-08T00:03:52.355Z,15.10
2022-10-08T00:08:04.435Z,15.10
2022-10-08T00:12:40.602Z,14.90
2022-10-08T00:17:40.570Z,15.10
2022-10-08T00:22:40.583Z,14.90
2022-10-08T00:42:40.674Z,14.80
2022-10-08T00:47:44.391Z,14.70
2022-10-08T01:02:40.835Z,14.60
2022-10-08T01:07:51.135Z,14.70
2022-10-08T01:12:53.946Z,14.50
2022-10-08T01:27:43.445Z,14.60
2022-10-08T01:32:47.610Z,14.50
2022-10-08T01:47:43.807Z,14.70
2022-10-08T01:52:49.985Z,14.60
2022-10-08T01:57:41.167Z,14.70
2022-10-08T02:02:41.898Z,14.50
2022-10-08T02:07:42.215Z,14.40
2022-10-08T02:18:05.353Z,14.60
2022-10-08T02:32:47.797Z,14.50
2022-10-08T02:42:45.615Z,14.40
2022-10-08T02:47:45.498Z,14.50
2022-10-08T02:52:43.992Z,14.40
2022-10-08T02:57:47.777Z,14.30
2022-10-08T03:02:45.942Z,14.20
2022-10-08T03:07:41.564Z,14.30
2022-10-08T03:17:45.258Z,14.50
2022-10-08T03:22:41.166Z,14.40
2022-10-08T03:27:41.055Z,14.30
2022-10-08T03:47:41.208Z,14.20
2022-10-08T03:57:41.217Z,14.30
2022-10-08T04:12:41.313Z,14.10
2022-10-08T04:32:41.530Z,14.00
2022-10-08T04:37:41.241Z,14.20
2022-10-08T04:47:42.893Z,14.10
2022-10-08T04:52:41.324Z,13.90
2022-10-08T04:57:41.325Z,14.00
2022-10-08T05:02:41.377Z,13.90
2022-10-08T05:07:41.321Z,14.10
2022-10-08T05:12:41.357Z,14.00
2022-10-08T05:22:41.405Z,13.90
2022-10-08T05:27:41.419Z,14.00
2022-10-08T05:32:41.410Z,13.90
2022-10-08T05:37:41.410Z,13.80
2022-10-08T05:47:41.477Z,14.00
2022-10-08T06:02:41.564Z,13.80
2022-10-08T06:17:41.556Z,13.70
2022-10-08T06:22:41.500Z,13.80
2022-10-08T06:37:46.512Z,13.90
2022-10-08T06:57:41.714Z,14.20
2022-10-08T07:07:41.642Z,14.50
2022-10-08T07:12:41.701Z,14.40
2022-10-08T07:22:41.665Z,14.20
2022-10-08T07:32:41.712Z,13.90
2022-10-08T07:42:42.004Z,14.10
2022-10-08T07:47:41.771Z,14.20
2022-10-08T07:52:41.725Z,14.10
2022-10-08T07:57:41.775Z,14.20
2022-10-08T08:07:41.820Z,14.10
2022-10-08T08:12:41.874Z,14.30
2022-10-08T08:17:41.842Z,14.50
2022-10-08T08:22:41.866Z,14.60
2022-10-08T08:27:41.880Z,15.00
2022-10-08T08:32:41.860Z,15.10
2022-10-08T08:37:41.863Z,15.00
2022-10-08T08:42:50.038Z,14.90
2022-10-08T08:47:51.839Z,15.10
2022-10-08T08:52:42.628Z,15.00
2022-10-08T08:57:51.899Z,15.30
2022-10-08T09:02:57.599Z,15.20
2022-10-08T09:07:45.861Z,15.40
2022-10-08T09:12:43.153Z,15.50
2022-10-08T09:17:42.613Z,15.70
2022-10-08T09:22:42.116Z,15.90
2022-10-08T09:28:00.285Z,16.00
2022-10-08T09:32:42.076Z,15.80
2022-10-08T09:37:45.525Z,16.00
2022-10-08T09:42:42.174Z,16.20
2022-10-08T09:47:42.086Z,16.40
2022-10-08T09:52:42.249Z,16.60
2022-10-08T09:57:45.104Z,17.00
2022-10-08T10:02:42.137Z,16.80
2022-10-08T10:07:43.762Z,16.70
2022-10-08T10:12:47.324Z,16.60
2022-10-08T10:17:49.949Z,16.90
2022-10-08T10:22:50.336Z,17.10
2022-10-08T10:27:49.010Z,17.20
2022-10-08T10:37:58.938Z,17.50
2022-10-08T10:42:47.608Z,17.60
2022-10-08T10:47:42.234Z,18.00
2022-10-08T10:52:42.264Z,18.50
2022-10-08T10:58:02.130Z,18.70
2022-10-08T11:02:48.199Z,19.10
2022-10-08T11:07:50.597Z,20.60
2022-10-08T11:12:55.905Z,19.90
2022-10-08T11:17:48.775Z,21.10
2022-10-08T11:22:52.744Z,23.90
2022-10-08T11:27:50.812Z,22.80
2022-10-08T11:32:48.861Z,21.90
2022-10-08T11:38:02.026Z,22.30
2022-10-08T11:47:42.388Z,22.70
2022-10-08T11:52:42.492Z,24.20
2022-10-08T12:02:43.226Z,26.70
2022-10-08T12:07:48.294Z,24.20
2022-10-08T12:12:50.140Z,27.00
2022-10-08T12:17:53.348Z,27.30
2022-10-08T12:22:43.994Z,25.40
2022-10-08T12:27:42.545Z,24.70
2022-10-08T12:32:42.487Z,24.90
2022-10-08T12:37:52.952Z,24.60
2022-10-08T12:42:43.431Z,25.00
2022-10-08T12:47:52.520Z,23.80
2022-10-08T12:52:42.814Z,22.50
2022-10-08T12:57:43.064Z,21.70
2022-10-08T13:02:43.402Z,20.40
2022-10-08T13:07:43.065Z,19.80
2022-10-08T13:12:42.735Z,18.80
2022-10-08T13:17:42.644Z,18.90
2022-10-08T13:27:42.656Z,18.30
2022-10-08T13:37:42.704Z,18.20
2022-10-08T13:42:47.409Z,18.30
2022-10-08T13:47:42.767Z,18.50
2022-10-08T13:57:42.792Z,18.90
2022-10-08T14:02:42.759Z,18.10
2022-10-08T14:12:42.857Z,18.20
2022-10-08T14:17:43.223Z,18.30
2022-10-08T14:22:42.859Z,17.90
2022-10-08T14:27:43.211Z,17.70
2022-10-08T14:32:43.723Z,18.10
2022-10-08T14:37:42.847Z,17.80
2022-10-08T14:42:43.075Z,18.00
2022-10-08T14:47:42.934Z,17.70
2022-10-08T14:52:44.493Z,17.40
2022-10-08T14:57:43.070Z,17.30
2022-10-08T15:02:42.938Z,17.20
2022-10-08T15:07:42.935Z,17.10
2022-10-08T15:12:42.918Z,17.20
2022-10-08T15:17:43.086Z,17.30
2022-10-08T15:22:42.955Z,17.20
2022-10-08T15:27:43.086Z,17.60
2022-10-08T15:32:42.951Z,17.40
2022-10-08T15:37:43.091Z,17.10
2022-10-08T15:42:43.003Z,17.00
2022-10-08T15:47:43.046Z,17.30
2022-10-08T15:52:46.345Z,17.00
2022-10-08T15:57:43.084Z,16.70
2022-10-08T16:02:43.179Z,16.60
2022-10-08T16:07:43.087Z,16.80
2022-10-08T16:22:43.187Z,16.60
2022-10-08T16:27:43.144Z,16.40
2022-10-08T16:32:43.187Z,16.50
2022-10-08T16:42:43.377Z,16.60
2022-10-08T16:52:43.202Z,16.40
2022-10-08T16:57:43.240Z,16.60
2022-10-08T17:02:43.362Z,16.40
2022-10-08T17:17:45.088Z,16.30
2022-10-08T17:27:43.291Z,16.20
2022-10-08T17:32:43.559Z,16.10
2022-10-08T17:37:43.315Z,16.00
2022-10-08T17:38:35.411Z,16.00
2022-10-08T17:47:43.364Z,16.10
2022-10-08T17:52:43.399Z,15.80
2022-10-08T18:02:45.280Z,15.60
2022-10-08T18:07:43.468Z,15.80
2022-10-08T18:17:43.423Z,15.70
2022-10-08T18:27:43.444Z,15.80
2022-10-08T18:32:43.446Z,15.50
2022-10-08T18:37:45.009Z,15.60
2022-10-08T18:47:43.495Z,15.70
2022-10-08T19:02:43.729Z,15.80
2022-10-08T19:12:43.557Z,15.60
2022-10-08T19:17:43.572Z,15.70
2022-10-08T19:27:43.610Z,15.60
2022-10-08T19:42:43.674Z,15.40
2022-10-08T19:52:44.471Z,15.30
2022-10-08T19:57:43.688Z,15.10
2022-10-08T20:02:43.737Z,15.00
2022-10-08T20:07:43.962Z,14.80
2022-10-08T20:27:43.771Z,14.60
2022-10-08T20:32:43.735Z,14.50
2022-10-08T20:47:43.821Z,14.10
2022-10-08T20:52:43.799Z,14.20
2022-10-08T20:57:43.823Z,14.30
2022-10-08T21:02:43.841Z,13.90
2022-10-08T21:07:43.880Z,13.80
2022-10-08T21:12:43.863Z,13.90
2022-10-08T21:17:43.887Z,13.80
2022-10-08T21:22:43.860Z,13.50
2022-10-08T21:32:45.212Z,13.70
2022-10-08T21:37:43.905Z,13.60
2022-10-08T21:47:44.044Z,13.50
2022-10-08T21:52:43.947Z,13.40
2022-10-08T22:02:44.016Z,13.50
2022-10-08T22:07:44.067Z,13.00
2022-10-08T22:12:44.027Z,13.10
2022-10-08T22:17:44.011Z,13.00
2022-10-08T22:22:44.057Z,13.10
2022-10-08T22:32:44.103Z,12.90
2022-10-08T22:37:44.066Z,12.80
2022-10-08T22:42:44.121Z,12.90
2022-10-08T22:47:45.110Z,12.60
2022-10-08T22:52:47.558Z,12.50
2022-10-08T23:07:44.237Z,12.30
2022-10-08T23:17:44.217Z,12.20
2022-10-08T23:22:44.175Z,12.30
2022-10-08T23:27:44.204Z,12.20
2022-10-08T23:32:44.249Z,12.00
2022-10-08T23:37:46.202Z,11.90
2022-10-08T23:47:44.278Z,11.80
2022-10-08T23:57:44.320Z,12.10
